createdAt,value
2019-06-15T00:00:37.734Z,5.70
2019-06-15T00:03:06.937Z,7.83
2019-06-15T00:05:36.072Z,8.20
2019-06-15T00:08:05.273Z,5.00
2019-06-15T00:10:34.555Z,6.80
2019-06-15T00:13:03.963Z,5.73
2019-06-15T00:15:33.169Z,6.57
2019-06-15T00:18:02.294Z,6.77
2019-06-15T00:20:31.486Z,6.47
2019-06-15T00:23:00.623Z,7.70
2019-06-15T00:25:29.761Z,7.27
2019-06-15T00:27:58.970Z,6.57
2019-06-15T00:30:28.130Z,7.33
2019-06-15T00:32:57.294Z,10.33
2019-06-15T00:35:26.601Z,6.23
2019-06-15T00:37:55.753Z,8.13
2019-06-15T00:40:24.880Z,9.30
2019-06-15T00:42:54.090Z,5.40
2019-06-15T00:45:23.099Z,8.90
2019-06-15T00:47:52.287Z,7.83
2019-06-15T00:50:21.520Z,8.23
2019-06-15T00:52:50.619Z,5.63
2019-06-15T00:55:19.862Z,8.27
2019-06-15T00:57:49.119Z,6.73
2019-06-15T01:00:18.209Z,7.63
2019-06-15T01:02:47.325Z,6.30
2019-06-15T01:05:16.766Z,6.63
2019-06-15T01:07:45.945Z,6.33
2019-06-15T01:10:15.030Z,4.83
2019-06-15T01:12:44.254Z,11.47
2019-06-15T01:15:13.365Z,10.63
2019-06-15T01:17:42.822Z,5.93
2019-06-15T01:20:12.010Z,7.60
2019-06-15T01:22:41.457Z,6.17
2019-06-15T01:25:10.784Z,9.87
2019-06-15T01:27:40.005Z,7.50
2019-06-15T01:30:09.247Z,8.63
2019-06-15T01:32:38.481Z,10.27
2019-06-15T01:35:08.439Z,7.20
2019-06-15T01:37:37.559Z,6.00
2019-06-15T01:40:07.417Z,7.03
2019-06-15T01:42:36.575Z,6.27
2019-06-15T01:45:05.690Z,9.97
2019-06-15T01:47:34.925Z,6.57
2019-06-15T01:50:04.110Z,7.43
2019-06-15T01:52:33.294Z,6.57
2019-06-15T01:55:02.793Z,7.40
2019-06-15T01:57:31.942Z,6.00
2019-06-15T02:00:01.186Z,7.60
2019-06-15T02:02:30.301Z,8.97
2019-06-15T02:04:59.436Z,6.30
2019-06-15T02:07:28.669Z,5.70
2019-06-15T02:09:57.800Z,7.20
2019-06-15T02:12:26.880Z,9.70
2019-06-15T02:14:56.113Z,7.10
2019-06-15T02:17:25.291Z,5.83
2019-06-15T02:19:54.471Z,6.20
2019-06-15T02:22:23.645Z,6.67
2019-06-15T02:24:52.800Z,6.33
2019-06-15T02:27:22.008Z,5.33
2019-06-15T02:29:51.185Z,5.67
2019-06-15T02:32:20.392Z,7.77
2019-06-15T02:34:49.629Z,5.23
2019-06-15T02:37:19.053Z,8.20
2019-06-15T02:39:48.227Z,6.33
2019-06-15T02:42:17.381Z,8.67
2019-06-15T02:44:46.574Z,7.10
2019-06-15T02:47:15.629Z,6.63
2019-06-15T02:49:44.792Z,6.77
2019-06-15T02:52:14.036Z,7.43
2019-06-15T02:54:43.588Z,8.07
2019-06-15T02:57:12.654Z,6.07
2019-06-15T02:59:41.839Z,6.77
2019-06-15T03:02:11.040Z,6.50
2019-06-15T03:04:40.211Z,6.37
2019-06-15T03:07:09.408Z,10.30
2019-06-15T03:09:38.584Z,7.57
2019-06-15T03:12:07.690Z,8.07
2019-06-15T03:14:36.842Z,9.80
2019-06-15T03:17:06.319Z,6.27
2019-06-15T03:19:35.540Z,6.60
2019-06-15T03:22:06.609Z,6.83
2019-06-15T03:24:35.602Z,23.10
2019-06-15T03:27:04.829Z,9.13
2019-06-15T03:29:33.982Z,8.30
2019-06-15T03:32:03.227Z,6.03
2019-06-15T03:34:32.402Z,13.27
2019-06-15T03:37:01.563Z,13.60
2019-06-15T03:39:31.093Z,6.10
2019-06-15T03:42:00.270Z,6.53
2019-06-15T03:44:29.676Z,6.97
2019-06-15T03:46:58.848Z,9.37
2019-06-15T03:49:28.007Z,7.90
2019-06-15T03:51:57.033Z,9.63
2019-06-15T03:54:26.138Z,6.80
2019-06-15T03:56:55.286Z,5.67
2019-06-15T03:59:24.481Z,6.50
2019-06-15T04:01:53.619Z,6.90
2019-06-15T04:04:22.692Z,7.27
2019-06-15T04:06:51.873Z,9.87
2019-06-15T04:09:21.034Z,6.90
2019-06-15T04:11:50.156Z,6.63
2019-06-15T04:14:19.412Z,8.07
2019-06-15T04:16:48.407Z,7.77
2019-06-15T04:19:17.506Z,7.17
2019-06-15T04:21:46.706Z,11.63
2019-06-15T04:24:15.754Z,6.83
2019-06-15T04:26:45.099Z,9.07
2019-06-15T04:29:14.542Z,11.27
2019-06-15T04:31:43.716Z,6.00
2019-06-15T04:34:12.919Z,7.50
2019-06-15T04:36:42.011Z,6.60
2019-06-15T04:39:11.910Z,6.90
2019-06-15T04:41:41.382Z,5.83
2019-06-15T04:44:10.849Z,6.00
2019-06-15T04:46:39.951Z,6.77
2019-06-15T04:49:09.188Z,9.47
2019-06-15T04:51:38.328Z,8.90
2019-06-15T04:54:07.773Z,5.87
2019-06-15T04:56:50.267Z,8.33
2019-06-15T04:59:07.747Z,7.17
2019-06-15T05:01:36.949Z,5.77
2019-06-15T05:04:06.106Z,6.83
2019-06-15T05:06:38.599Z,6.33
2019-06-15T05:09:07.667Z,6.73
2019-06-15T05:11:36.882Z,8.00
2019-06-15T05:14:06.140Z,8.07
2019-06-15T05:16:35.288Z,6.53
2019-06-15T05:19:04.399Z,18.50
2019-06-15T05:21:33.586Z,5.80
2019-06-15T05:24:02.720Z,9.77
2019-06-15T05:26:31.914Z,7.13
2019-06-15T05:29:01.220Z,9.00
2019-06-15T05:31:49.502Z,7.10
2019-06-15T05:34:18.725Z,9.40
2019-06-15T05:36:47.904Z,12.27
2019-06-15T05:39:17.083Z,6.17
2019-06-15T05:41:46.255Z,5.93
2019-06-15T05:44:15.446Z,6.07
2019-06-15T05:46:44.589Z,8.83
2019-06-15T05:49:13.850Z,7.83
2019-06-15T05:51:43.009Z,6.97
2019-06-15T05:54:12.182Z,6.70
2019-06-15T05:56:41.375Z,11.93
2019-06-15T05:59:10.573Z,8.13
2019-06-15T06:01:39.690Z,9.23
2019-06-15T06:04:08.833Z,9.43
2019-06-15T06:06:38.025Z,9.57
2019-06-15T06:09:07.653Z,7.03
2019-06-15T06:11:36.880Z,12.27
2019-06-15T06:14:06.078Z,8.03
2019-06-15T06:16:35.255Z,8.83
2019-06-15T06:19:04.340Z,7.97
2019-06-15T06:21:33.471Z,12.07
2019-06-15T06:24:02.669Z,9.13
2019-06-15T06:26:31.829Z,8.23
2019-06-15T06:29:00.939Z,7.20
2019-06-15T06:31:38.096Z,10.83
2019-06-15T06:34:17.940Z,10.50
2019-06-15T06:36:45.353Z,10.23
2019-06-15T06:39:14.379Z,6.90
2019-06-15T06:41:43.511Z,17.23
2019-06-15T06:44:12.612Z,7.67
2019-06-15T06:46:41.787Z,9.70
2019-06-15T06:49:11.050Z,8.03
2019-06-15T06:51:40.123Z,9.70
2019-06-15T06:54:09.391Z,10.27
2019-06-15T06:56:38.636Z,10.30
2019-06-15T06:59:07.781Z,17.23
2019-06-15T07:01:37.479Z,7.30
2019-06-15T07:04:06.697Z,10.10
2019-06-15T07:06:36.093Z,6.70
2019-06-15T07:09:05.722Z,10.33
2019-06-15T07:11:34.913Z,14.40
2019-06-15T07:14:04.066Z,11.53
2019-06-15T07:16:33.373Z,10.73
2019-06-15T07:19:02.495Z,8.40
2019-06-15T07:21:31.645Z,10.60
2019-06-15T07:24:00.698Z,10.00
2019-06-15T07:26:29.829Z,7.13
2019-06-15T07:28:58.917Z,10.70
2019-06-15T07:31:28.112Z,6.40
2019-06-15T07:34:05.248Z,7.17
2019-06-15T07:36:34.265Z,8.33
2019-06-15T07:39:13.583Z,8.53
2019-06-15T07:41:42.730Z,8.83
2019-06-15T07:44:11.847Z,7.30
2019-06-15T07:46:41.009Z,8.30
2019-06-15T07:49:12.615Z,6.90
2019-06-15T07:51:41.823Z,6.00
2019-06-15T07:54:11.245Z,7.07
2019-06-15T07:56:40.415Z,10.80
2019-06-15T07:59:09.530Z,7.43
2019-06-15T08:01:38.694Z,6.97
2019-06-15T08:04:08.288Z,9.43
2019-06-15T08:06:37.406Z,7.50
2019-06-15T08:09:07.313Z,7.97
2019-06-15T08:11:36.469Z,8.07
2019-06-15T08:14:06.592Z,8.07
2019-06-15T08:16:35.740Z,8.23
2019-06-15T08:19:06.361Z,6.83
2019-06-15T08:21:36.176Z,9.10
2019-06-15T08:24:05.424Z,7.43
2019-06-15T08:26:34.953Z,7.13
2019-06-15T08:29:05.406Z,10.33
2019-06-15T08:31:34.476Z,9.20
2019-06-15T08:34:03.630Z,6.43
2019-06-15T08:36:32.884Z,6.03
2019-06-15T08:39:02.026Z,8.10
2019-06-15T08:41:31.190Z,6.17
2019-06-15T08:44:00.401Z,12.03
2019-06-15T08:46:29.552Z,7.70
2019-06-15T08:48:58.735Z,9.47
2019-06-15T08:51:27.835Z,7.47
2019-06-15T08:53:56.993Z,7.73
2019-06-15T08:56:26.057Z,11.03
2019-06-15T08:58:55.974Z,11.10
2019-06-15T09:01:25.375Z,15.40
2019-06-15T09:03:54.636Z,7.80
2019-06-15T09:06:24.166Z,11.27
2019-06-15T09:08:53.271Z,7.07
2019-06-15T09:11:22.781Z,8.97
2019-06-15T09:13:51.930Z,7.53
2019-06-15T09:16:21.356Z,7.00
2019-06-15T09:18:50.557Z,7.97
2019-06-15T09:21:19.720Z,7.57
2019-06-15T09:23:48.835Z,6.67
2019-06-15T09:26:17.968Z,12.20
2019-06-15T09:28:47.192Z,5.90
2019-06-15T09:31:16.336Z,10.30
2019-06-15T09:33:45.446Z,5.57
2019-06-15T09:36:14.946Z,7.07
2019-06-15T09:38:44.085Z,6.87
2019-06-15T09:41:13.186Z,15.23
2019-06-15T09:43:42.387Z,7.93
2019-06-15T09:46:11.788Z,7.03
2019-06-15T09:48:41.008Z,6.60
2019-06-15T09:51:10.170Z,7.57
2019-06-15T09:53:39.336Z,6.30
2019-06-15T09:56:08.785Z,4.67
2019-06-15T09:58:37.906Z,4.67
2019-06-15T10:01:07.009Z,6.53
2019-06-15T10:03:36.100Z,5.87
2019-06-15T10:06:05.728Z,6.53
2019-06-15T10:08:35.241Z,9.17
2019-06-15T10:11:04.395Z,6.33
2019-06-15T10:13:33.576Z,7.70
2019-06-15T10:16:02.763Z,6.10
2019-06-15T10:18:31.934Z,6.67
2019-06-15T10:21:01.369Z,6.27
2019-06-15T10:23:30.551Z,6.70
2019-06-15T10:25:59.861Z,6.17
2019-06-15T10:28:29.023Z,9.23
2019-06-15T10:31:00.727Z,5.17
2019-06-15T10:33:28.925Z,8.10
2019-06-15T10:35:58.070Z,6.63
2019-06-15T10:38:27.247Z,4.40
2019-06-15T10:40:56.378Z,6.63
2019-06-15T10:43:25.514Z,5.90
2019-06-15T10:45:54.728Z,8.60
2019-06-15T10:48:23.943Z,5.23
2019-06-15T10:50:53.015Z,4.63
2019-06-15T10:53:22.198Z,4.80
2019-06-15T10:55:51.385Z,5.03
2019-06-15T10:58:20.868Z,4.70
2019-06-15T11:00:50.014Z,5.53
2019-06-15T11:03:19.585Z,6.53
2019-06-15T11:05:48.711Z,5.13
2019-06-15T11:08:17.919Z,7.37
2019-06-15T11:11:03.673Z,5.80
2019-06-15T11:13:33.199Z,5.27
2019-06-15T11:16:02.387Z,4.47
2019-06-15T11:18:31.607Z,7.93
2019-06-15T11:21:00.777Z,8.93
2019-06-15T11:23:30.010Z,7.57
2019-06-15T11:25:59.179Z,5.57
2019-06-15T11:28:28.342Z,7.00
2019-06-15T11:30:57.524Z,7.27
2019-06-15T11:33:26.676Z,4.80
2019-06-15T11:35:56.182Z,3.63
2019-06-15T11:38:25.246Z,4.23
2019-06-15T11:40:54.275Z,6.53
2019-06-15T11:43:23.469Z,5.07
2019-06-15T11:45:52.897Z,6.73
2019-06-15T11:48:22.461Z,6.70
2019-06-15T11:50:51.598Z,4.43
2019-06-15T11:53:21.185Z,9.90
2019-06-15T11:55:50.328Z,4.27
2019-06-15T11:58:19.403Z,6.80
2019-06-15T12:00:48.569Z,3.70
2019-06-15T12:03:18.118Z,5.43
2019-06-15T12:05:47.657Z,3.67
2019-06-15T12:08:16.742Z,4.73
2019-06-15T12:10:45.970Z,3.77
2019-06-15T12:13:15.160Z,4.83
2019-06-15T12:15:44.392Z,3.40
2019-06-15T12:18:13.424Z,7.60
2019-06-15T12:20:43.855Z,3.43
2019-06-15T12:23:13.097Z,6.90
2019-06-15T12:25:42.256Z,4.07
2019-06-15T12:28:11.473Z,3.93
2019-06-15T12:30:47.060Z,4.10
2019-06-15T12:33:11.538Z,3.97
2019-06-15T12:35:40.742Z,6.87
2019-06-15T12:38:09.950Z,5.03
2019-06-15T12:40:39.094Z,5.17
2019-06-15T12:43:08.311Z,4.10
2019-06-15T12:45:37.906Z,4.77
2019-06-15T12:48:07.121Z,4.50
2019-06-15T12:50:36.355Z,5.60
2019-06-15T12:53:05.599Z,6.43
2019-06-15T12:55:34.804Z,3.43
2019-06-15T12:58:04.176Z,6.50
2019-06-15T13:00:37.393Z,5.00
2019-06-15T13:03:06.664Z,5.40
2019-06-15T13:05:35.784Z,4.20
2019-06-15T13:08:05.024Z,3.23
2019-06-15T13:10:34.213Z,3.13
2019-06-15T13:13:03.814Z,4.00
2019-06-15T13:15:33.063Z,5.00
2019-06-15T13:18:02.254Z,3.13
2019-06-15T13:20:31.527Z,4.50
2019-06-15T13:23:08.695Z,6.40
2019-06-15T13:25:40.564Z,6.03
2019-06-15T13:28:10.116Z,4.17
2019-06-15T13:30:40.488Z,4.17
2019-06-15T13:33:10.198Z,4.80
2019-06-15T13:35:39.752Z,6.43
2019-06-15T13:38:08.942Z,4.47
2019-06-15T13:40:38.151Z,5.23
2019-06-15T13:43:07.381Z,6.50
2019-06-15T13:45:39.402Z,3.77
2019-06-15T13:48:11.641Z,5.63
2019-06-15T13:50:39.510Z,5.00
2019-06-15T13:53:08.742Z,3.47
2019-06-15T13:55:37.952Z,4.03
2019-06-15T13:58:07.111Z,3.57
2019-06-15T14:00:36.339Z,2.83
2019-06-15T14:03:05.549Z,6.17
2019-06-15T14:05:34.714Z,3.80
2019-06-15T14:08:03.911Z,6.07
2019-06-15T14:10:33.126Z,3.00
2019-06-15T14:13:02.297Z,6.37
2019-06-15T14:15:31.469Z,4.23
2019-06-15T14:18:00.585Z,3.30
2019-06-15T14:20:29.830Z,2.70
2019-06-15T14:22:59.139Z,3.13
2019-06-15T14:25:28.278Z,3.00
2019-06-15T14:28:00.458Z,2.97
2019-06-15T14:30:29.794Z,14.10
2019-06-15T14:32:58.903Z,5.13
2019-06-15T14:35:27.982Z,4.80
2019-06-15T14:37:57.181Z,6.73
2019-06-15T14:40:26.493Z,3.20
2019-06-15T14:42:56.124Z,3.17
2019-06-15T14:45:25.373Z,4.67
2019-06-15T14:47:54.565Z,3.67
2019-06-15T14:50:23.780Z,3.27
2019-06-15T14:52:52.973Z,3.80
2019-06-15T14:55:22.167Z,2.90
2019-06-15T14:57:51.463Z,2.93
2019-06-15T15:00:21.344Z,2.27
2019-06-15T15:02:50.539Z,3.77
2019-06-15T15:05:19.806Z,3.57
2019-06-15T15:07:49.005Z,3.87
2019-06-15T15:10:18.184Z,2.63
2019-06-15T15:12:47.267Z,3.33
2019-06-15T15:15:17.245Z,4.43
2019-06-15T15:17:46.300Z,4.00
2019-06-15T15:20:17.391Z,2.93
2019-06-15T15:22:47.235Z,4.90
2019-06-15T15:25:16.945Z,3.53
2019-06-15T15:27:46.777Z,4.53
2019-06-15T15:30:27.126Z,1.97
2019-06-15T15:32:57.161Z,3.07
2019-06-15T15:35:27.031Z,3.47
2019-06-15T15:37:56.934Z,2.80
2019-06-15T15:40:27.425Z,3.27
2019-06-15T15:42:58.157Z,3.67
2019-06-15T15:45:27.709Z,3.10
2019-06-15T15:47:56.911Z,2.63
2019-06-15T15:50:26.393Z,5.27
2019-06-15T15:52:56.771Z,5.57
2019-06-15T15:55:26.554Z,6.80
2019-06-15T15:57:56.385Z,4.87
2019-06-15T16:00:32.719Z,2.73
2019-06-15T16:03:01.914Z,5.93
2019-06-15T16:05:31.067Z,2.20
2019-06-15T16:08:00.243Z,3.97
2019-06-15T16:10:29.401Z,5.07
2019-06-15T16:12:58.636Z,3.63
2019-06-15T16:15:27.727Z,2.53
2019-06-15T16:17:57.110Z,1.77
2019-06-15T16:20:26.493Z,2.30
2019-06-15T16:22:56.579Z,4.67
2019-06-15T16:25:26.686Z,1.77
2019-06-15T16:27:56.755Z,2.13
2019-06-15T16:30:59.495Z,4.97
2019-06-15T16:33:07.055Z,3.50
2019-06-15T16:35:36.142Z,2.37
2019-06-15T16:38:06.958Z,2.70
2019-06-15T16:40:38.438Z,3.77
2019-06-15T16:43:07.913Z,2.43
2019-06-15T16:45:37.026Z,2.00
2019-06-15T16:48:06.466Z,3.03
2019-06-15T16:50:36.874Z,2.53
2019-06-15T16:53:06.440Z,3.63
2019-06-15T16:55:36.804Z,2.47
2019-06-15T16:58:07.469Z,2.90
2019-06-15T17:00:37.115Z,3.40
2019-06-15T17:03:19.840Z,3.00
2019-06-15T17:05:37.506Z,1.50
2019-06-15T17:08:07.089Z,2.33
2019-06-15T17:10:40.418Z,2.90
2019-06-15T17:13:09.671Z,3.23
2019-06-15T17:15:38.824Z,2.77
2019-06-15T17:18:07.920Z,1.67
2019-06-15T17:20:50.297Z,2.27
2019-06-15T17:23:19.596Z,2.73
2019-06-15T17:25:48.840Z,1.70
2019-06-15T17:28:18.005Z,2.33
2019-06-15T17:30:47.201Z,2.20
2019-06-15T17:33:16.820Z,3.10
2019-06-15T17:35:58.019Z,2.90
2019-06-15T17:38:17.234Z,2.47
2019-06-15T17:40:46.471Z,2.67
2019-06-15T17:43:16.302Z,3.13
2019-06-15T17:45:46.877Z,2.63
2019-06-15T17:48:17.322Z,2.13
2019-06-15T17:50:47.752Z,2.43
2019-06-15T17:53:17.389Z,2.73
2019-06-15T17:55:46.822Z,1.73
2019-06-15T17:58:16.908Z,3.67
2019-06-15T18:00:47.320Z,2.33
2019-06-15T18:03:17.164Z,2.03
2019-06-15T18:05:48.010Z,2.60
2019-06-15T18:08:17.659Z,1.67
2019-06-15T18:10:47.891Z,2.40
2019-06-15T18:13:17.614Z,2.23
2019-06-15T18:15:47.517Z,2.13
2019-06-15T18:18:17.528Z,1.73
2019-06-15T18:20:46.643Z,2.33
2019-06-15T18:23:17.314Z,2.13
2019-06-15T18:25:47.079Z,2.57
2019-06-15T18:28:17.697Z,3.03
2019-06-15T18:30:47.372Z,1.80
2019-06-15T18:33:16.653Z,1.43
2019-06-15T18:35:47.403Z,2.57
2019-06-15T18:38:16.752Z,1.90
2019-06-15T18:40:45.960Z,1.83
2019-06-15T18:43:17.611Z,2.30
2019-06-15T18:45:48.481Z,3.93
2019-06-15T18:48:17.641Z,3.00
2019-06-15T18:50:47.121Z,3.07
2019-06-15T18:53:16.264Z,2.83
2019-06-15T18:55:47.344Z,2.70
2019-06-15T18:58:17.295Z,2.20
2019-06-15T19:00:46.986Z,2.73
2019-06-15T19:03:16.719Z,7.60
2019-06-15T19:05:46.773Z,1.43
2019-06-15T19:08:17.301Z,2.40
2019-06-15T19:10:46.837Z,2.20
2019-06-15T19:13:16.293Z,1.27
2019-06-15T19:15:46.610Z,6.43
2019-06-15T19:18:17.689Z,9.97
2019-06-15T19:20:47.009Z,3.13
2019-06-15T19:23:16.086Z,3.97
2019-06-15T19:25:46.979Z,7.40
2019-06-15T19:28:16.618Z,2.10
2019-06-15T19:30:47.214Z,12.60
2019-06-15T19:33:16.701Z,11.07
2019-06-15T19:35:46.391Z,13.67
2019-06-15T19:38:16.539Z,18.03
2019-06-15T19:40:46.200Z,28.20
2019-06-15T19:43:16.219Z,16.20
2019-06-15T19:45:48.880Z,12.00
2019-06-15T19:48:18.033Z,10.90
2019-06-15T19:50:47.191Z,13.80
2019-06-15T19:53:17.217Z,24.20
2019-06-15T19:55:46.758Z,18.80
2019-06-15T19:58:16.537Z,16.57
2019-06-15T20:00:46.756Z,1.47
2019-06-15T20:03:16.813Z,1.97
2019-06-15T20:05:46.673Z,13.90
2019-06-15T20:08:17.740Z,1.37
2019-06-15T20:10:47.489Z,2.03
2019-06-15T20:13:17.046Z,3.10
2019-06-15T20:15:46.929Z,1.40
2019-06-15T20:18:17.702Z,1.83
2019-06-15T20:20:47.241Z,1.50
2019-06-15T20:23:16.477Z,2.63
2019-06-15T20:25:47.005Z,1.20
2019-06-15T20:28:16.510Z,1.20
2019-06-15T20:30:46.606Z,1.73
2019-06-15T20:33:16.599Z,2.17
2019-06-15T20:35:49.731Z,1.93
2019-06-15T20:38:21.176Z,1.67
2019-06-15T20:40:52.117Z,1.30
2019-06-15T20:43:21.348Z,1.40
2019-06-15T20:45:51.603Z,1.60
2019-06-15T20:48:22.447Z,2.40
2019-06-15T20:50:51.970Z,2.27
2019-06-15T20:53:23.974Z,1.30
2019-06-15T20:55:56.792Z,1.97
2019-06-15T20:58:26.454Z,2.00
2019-06-15T21:00:56.480Z,1.60
2019-06-15T21:03:36.824Z,1.47
2019-06-15T21:06:11.544Z,2.13
2019-06-15T21:08:43.576Z,2.33
2019-06-15T21:11:13.110Z,3.77
2019-06-15T21:13:46.707Z,2.77
2019-06-15T21:16:15.285Z,4.63
2019-06-15T21:18:46.690Z,1.93
2019-06-15T21:21:18.165Z,2.87
2019-06-15T21:23:47.805Z,2.60
2019-06-15T21:26:19.694Z,2.77
2019-06-15T21:28:49.905Z,2.20
2019-06-15T21:31:33.011Z,3.73
2019-06-15T21:34:03.707Z,2.57
2019-06-15T21:36:33.378Z,2.37
2019-06-15T21:39:06.819Z,2.30
2019-06-15T21:41:36.819Z,2.00
2019-06-15T21:44:06.795Z,3.63
2019-06-15T21:46:36.873Z,1.47
2019-06-15T21:49:07.180Z,2.43
2019-06-15T21:51:37.042Z,2.50
2019-06-15T21:54:16.366Z,1.93
2019-06-15T21:56:48.331Z,3.20
2019-06-15T21:59:19.565Z,2.07
2019-06-15T22:01:49.658Z,3.77
2019-06-15T22:04:25.922Z,2.20
2019-06-15T22:07:06.261Z,2.40
2019-06-15T22:09:36.368Z,2.60
2019-06-15T22:12:09.017Z,2.10
2019-06-15T22:14:38.684Z,2.27
2019-06-15T22:17:16.821Z,1.70
2019-06-15T22:19:46.804Z,1.53
2019-06-15T22:22:19.588Z,2.27
2019-06-15T22:24:49.516Z,8.07
2019-06-15T22:27:19.545Z,3.57
2019-06-15T22:29:48.874Z,2.53
2019-06-15T22:32:18.097Z,1.80
2019-06-15T22:34:50.994Z,5.33
2019-06-15T22:37:20.202Z,2.00
2019-06-15T22:39:49.405Z,2.97
2019-06-15T22:42:18.623Z,2.53
2019-06-15T22:44:47.899Z,4.37
2019-06-15T22:47:17.107Z,1.92
2019-06-15T22:49:46.913Z,1.80
2019-06-15T22:52:17.130Z,2.10
2019-06-15T22:54:47.679Z,2.73
2019-06-15T22:57:16.868Z,2.53
2019-06-15T22:59:46.248Z,2.00
2019-06-15T23:02:16.749Z,2.10
2019-06-15T23:04:47.136Z,1.80
2019-06-15T23:07:16.639Z,4.27
2019-06-15T23:09:46.759Z,1.97
2019-06-15T23:12:16.645Z,3.92
2019-06-15T23:14:46.610Z,1.70
2019-06-15T23:17:15.929Z,3.70
2019-06-15T23:19:46.101Z,2.33
2019-06-15T23:22:17.142Z,1.83
2019-06-15T23:24:46.862Z,2.40
2019-06-15T23:27:16.587Z,1.67
2019-06-15T23:29:46.367Z,3.60
2019-06-15T23:32:16.948Z,5.87
2019-06-15T23:34:46.272Z,3.97
2019-06-15T23:37:17.491Z,4.93
2019-06-15T23:40:07.429Z,1.73
2019-06-15T23:42:36.509Z,2.20
2019-06-15T23:45:06.897Z,3.60
2019-06-15T23:47:36.921Z,3.03
2019-06-15T23:50:06.396Z,2.40
2019-06-15T23:52:36.290Z,2.00
2019-06-15T23:55:05.701Z,2.13
2019-06-15T23:57:36.850Z,4.03
